sensor_id;sensor_type;location;lat;lon;timestamp;P1;durP1;ratioP1;P2;durP2;ratioP2
83688;SDS011;74527;43.224;0.108;2024-02-26T00:01:37;19.67;;;2.83;;
83688;SDS011;74527;43.224;0.108;2024-02-26T00:04:03;17.35;;;2.53;;
83688;SDS011;74527;43.224;0.108;2024-02-26T00:06:30;9.65;;;2.58;;
83688;SDS011;74527;43.224;0.108;2024-02-26T00:08:56;22.48;;;2.42;;
83688;SDS011;74527;43.224;0.108;2024-02-26T00:11:22;13.30;;;2.75;;
83688;SDS011;74527;43.224;0.108;2024-02-26T00:13:48;24.30;;;2.40;;
83688;SDS011;74527;43.224;0.108;2024-02-26T00:16:14;13.00;;;2.22;;
83688;SDS011;74527;43.224;0.108;2024-02-26T00:18:40;13.93;;;2.55;;
83688;SDS011;74527;43.224;0.108;2024-02-26T00:21:06;17.15;;;2.03;;
83688;SDS011;74527;43.224;0.108;2024-02-26T00:23:32;13.30;;;3.10;;
83688;SDS011;74527;43.224;0.108;2024-02-26T00:25:58;16.65;;;3.38;;
83688;SDS011;74527;43.224;0.108;2024-02-26T00:28:24;14.05;;;2.10;;
83688;SDS011;74527;43.224;0.108;2024-02-26T00:30:52;13.23;;;2.80;;
83688;SDS011;74527;43.224;0.108;2024-02-26T00:35:46;14.38;;;2.55;;
83688;SDS011;74527;43.224;0.108;2024-02-26T00:38:12;16.63;;;3.08;;
83688;SDS011;74527;43.224;0.108;2024-02-26T00:40:39;13.68;;;3.88;;
83688;SDS011;74527;43.224;0.108;2024-02-26T00:43:06;11.35;;;3.75;;
83688;SDS011;74527;43.224;0.108;2024-02-26T00:45:32;20.30;;;5.72;;
83688;SDS011;74527;43.224;0.108;2024-02-26T00:47:58;13.65;;;2.15;;
83688;SDS011;74527;43.224;0.108;2024-02-26T00:50:26;9.80;;;2.00;;
83688;SDS011;74527;43.224;0.108;2024-02-26T00:52:52;5.38;;;1.58;;
83688;SDS011;74527;43.224;0.108;2024-02-26T00:55:18;15.32;;;2.20;;
83688;SDS011;74527;43.224;0.108;2024-02-26T00:57:44;7.10;;;2.15;;
83688;SDS011;74527;43.224;0.108;2024-02-26T01:00:11;13.93;;;1.40;;
83688;SDS011;74527;43.224;0.108;2024-02-26T01:02:37;7.72;;;1.88;;
83688;SDS011;74527;43.224;0.108;2024-02-26T01:05:04;7.03;;;1.30;;
83688;SDS011;74527;43.224;0.108;2024-02-26T01:07:31;6.32;;;1.27;;
83688;SDS011;74527;43.224;0.108;2024-02-26T01:10:01;9.90;;;1.52;;
83688;SDS011;74527;43.224;0.108;2024-02-26T01:12:27;8.55;;;1.45;;
83688;SDS011;74527;43.224;0.108;2024-02-26T01:14:53;15.50;;;2.33;;
83688;SDS011;74527;43.224;0.108;2024-02-26T01:17:19;12.02;;;1.70;;
83688;SDS011;74527;43.224;0.108;2024-02-26T01:19:45;9.88;;;1.65;;
83688;SDS011;74527;43.224;0.108;2024-02-26T01:22:11;12.95;;;2.20;;
83688;SDS011;74527;43.224;0.108;2024-02-26T01:24:37;11.82;;;2.10;;
83688;SDS011;74527;43.224;0.108;2024-02-26T01:27:03;6.72;;;1.20;;
83688;SDS011;74527;43.224;0.108;2024-02-26T01:29:30;10.13;;;1.42;;
83688;SDS011;74527;43.224;0.108;2024-02-26T01:31:56;7.88;;;2.05;;
83688;SDS011;74527;43.224;0.108;2024-02-26T01:34:22;10.13;;;2.25;;
83688;SDS011;74527;43.224;0.108;2024-02-26T01:36:48;12.50;;;1.50;;
83688;SDS011;74527;43.224;0.108;2024-02-26T01:39:14;5.97;;;0.90;;
83688;SDS011;74527;43.224;0.108;2024-02-26T01:41:40;19.80;;;1.63;;
83688;SDS011;74527;43.224;0.108;2024-02-26T01:44:06;3.85;;;1.00;;
83688;SDS011;74527;43.224;0.108;2024-02-26T01:46:33;10.05;;;1.17;;
83688;SDS011;74527;43.224;0.108;2024-02-26T01:49:00;3.75;;;1.20;;
83688;SDS011;74527;43.224;0.108;2024-02-26T01:51:27;6.00;;;1.10;;
83688;SDS011;74527;43.224;0.108;2024-02-26T01:53:53;13.60;;;1.70;;
83688;SDS011;74527;43.224;0.108;2024-02-26T01:56:19;7.72;;;1.40;;
83688;SDS011;74527;43.224;0.108;2024-02-26T01:58:45;5.65;;;1.70;;
83688;SDS011;74527;43.224;0.108;2024-02-26T02:01:12;7.65;;;2.00;;
83688;SDS011;74527;43.224;0.108;2024-02-26T02:03:38;7.35;;;2.03;;
83688;SDS011;74527;43.224;0.108;2024-02-26T02:06:06;13.35;;;2.13;;
83688;SDS011;74527;43.224;0.108;2024-02-26T02:08:33;18.58;;;2.92;;
83688;SDS011;74527;43.224;0.108;2024-02-26T02:11:00;27.23;;;5.93;;
83688;SDS011;74527;43.224;0.108;2024-02-26T02:13:26;38.67;;;7.38;;
83688;SDS011;74527;43.224;0.108;2024-02-26T02:15:52;10.52;;;3.30;;
83688;SDS011;74527;43.224;0.108;2024-02-26T02:18:19;10.82;;;1.45;;
83688;SDS011;74527;43.224;0.108;2024-02-26T02:20:45;9.43;;;2.53;;
83688;SDS011;74527;43.224;0.108;2024-02-26T02:23:11;10.20;;;1.83;;
83688;SDS011;74527;43.224;0.108;2024-02-26T02:25:37;9.25;;;1.55;;
83688;SDS011;74527;43.224;0.108;2024-02-26T02:28:03;5.70;;;1.35;;
83688;SDS011;74527;43.224;0.108;2024-02-26T02:30:30;11.20;;;1.58;;
83688;SDS011;74527;43.224;0.108;2024-02-26T02:32:58;6.55;;;1.08;;
83688;SDS011;74527;43.224;0.108;2024-02-26T02:35:24;9.73;;;1.95;;
83688;SDS011;74527;43.224;0.108;2024-02-26T02:37:51;8.48;;;1.33;;
83688;SDS011;74527;43.224;0.108;2024-02-26T02:40:17;8.77;;;2.03;;
83688;SDS011;74527;43.224;0.108;2024-02-26T02:42:44;8.63;;;1.80;;
83688;SDS011;74527;43.224;0.108;2024-02-26T02:45:10;13.80;;;1.95;;
83688;SDS011;74527;43.224;0.108;2024-02-26T02:47:36;12.38;;;1.60;;
83688;SDS011;74527;43.224;0.108;2024-02-26T02:50:03;6.10;;;1.50;;
83688;SDS011;74527;43.224;0.108;2024-02-26T02:52:29;11.32;;;1.90;;
83688;SDS011;74527;43.224;0.108;2024-02-26T02:54:55;10.32;;;1.50;;
83688;SDS011;74527;43.224;0.108;2024-02-26T02:57:21;6.20;;;1.58;;
83688;SDS011;74527;43.224;0.108;2024-02-26T02:59:47;10.65;;;1.60;;
83688;SDS011;74527;43.224;0.108;2024-02-26T03:02:13;15.50;;;2.33;;
83688;SDS011;74527;43.224;0.108;2024-02-26T03:04:39;11.50;;;2.10;;
83688;SDS011;74527;43.224;0.108;2024-02-26T03:07:05;13.52;;;1.95;;
83688;SDS011;74527;43.224;0.108;2024-02-26T03:09:31;13.50;;;2.50;;
83688;SDS011;74527;43.224;0.108;2024-02-26T03:11:57;10.52;;;1.83;;
83688;SDS011;74527;43.224;0.108;2024-02-26T03:14:23;19.63;;;3.10;;
83688;SDS011;74527;43.224;0.108;2024-02-26T03:16:52;8.40;;;2.00;;
83688;SDS011;74527;43.224;0.108;2024-02-26T03:21:44;6.85;;;1.50;;
83688;SDS011;74527;43.224;0.108;2024-02-26T03:24:10;13.63;;;1.58;;
83688;SDS011;74527;43.224;0.108;2024-02-26T03:26:37;13.40;;;2.35;;
83688;SDS011;74527;43.224;0.108;2024-02-26T03:29:03;11.48;;;2.20;;
83688;SDS011;74527;43.224;0.108;2024-02-26T03:31:29;11.68;;;1.60;;
83688;SDS011;74527;43.224;0.108;2024-02-26T03:33:55;13.90;;;2.05;;
83688;SDS011;74527;43.224;0.108;2024-02-26T03:36:21;13.65;;;3.05;;
83688;SDS011;74527;43.224;0.108;2024-02-26T03:38:48;19.15;;;3.25;;
83688;SDS011;74527;43.224;0.108;2024-02-26T03:41:14;12.43;;;2.25;;
83688;SDS011;74527;43.224;0.108;2024-02-26T03:43:40;13.98;;;2.95;;
83688;SDS011;74527;43.224;0.108;2024-02-26T03:46:07;11.30;;;2.47;;
83688;SDS011;74527;43.224;0.108;2024-02-26T03:48:34;17.40;;;2.83;;
83688;SDS011;74527;43.224;0.108;2024-02-26T03:51:00;15.50;;;1.55;;
83688;SDS011;74527;43.224;0.108;2024-02-26T03:53:26;14.40;;;2.30;;
83688;SDS011;74527;43.224;0.108;2024-02-26T03:55:53;18.17;;;1.75;;
83688;SDS011;74527;43.224;0.108;2024-02-26T03:58:20;17.80;;;1.98;;
83688;SDS011;74527;43.224;0.108;2024-02-26T04:00:46;11.23;;;1.70;;
83688;SDS011;74527;43.224;0.108;2024-02-26T04:03:13;6.82;;;1.48;;
83688;SDS011;74527;43.224;0.108;2024-02-26T04:05:39;11.65;;;1.80;;
83688;SDS011;74527;43.224;0.108;2024-02-26T04:08:05;20.88;;;1.60;;
83688;SDS011;74527;43.224;0.108;2024-02-26T04:10:32;16.15;;;1.75;;
83688;SDS011;74527;43.224;0.108;2024-02-26T04:13:00;12.82;;;2.88;;
83688;SDS011;74527;43.224;0.108;2024-02-26T04:15:26;13.07;;;2.67;;
83688;SDS011;74527;43.224;0.108;2024-02-26T04:17:52;20.08;;;6.53;;
83688;SDS011;74527;43.224;0.108;2024-02-26T04:20:18;9.05;;;3.22;;
83688;SDS011;74527;43.224;0.108;2024-02-26T04:22:44;8.98;;;1.17;;
83688;SDS011;74527;43.224;0.108;2024-02-26T04:25:11;9.18;;;1.40;;
83688;SDS011;74527;43.224;0.108;2024-02-26T04:27:37;10.82;;;2.28;;
83688;SDS011;74527;43.224;0.108;2024-02-26T04:30:03;11.77;;;1.40;;
83688;SDS011;74527;43.224;0.108;2024-02-26T04:32:29;12.07;;;2.08;;
83688;SDS011;74527;43.224;0.108;2024-02-26T04:34:56;7.38;;;1.40;;
83688;SDS011;74527;43.224;0.108;2024-02-26T04:37:22;15.20;;;2.28;;
83688;SDS011;74527;43.224;0.108;2024-02-26T04:39:48;10.07;;;1.75;;
83688;SDS011;74527;43.224;0.108;2024-02-26T04:42:14;11.13;;;1.40;;
83688;SDS011;74527;43.224;0.108;2024-02-26T04:44:40;12.75;;;1.60;;
83688;SDS011;74527;43.224;0.108;2024-02-26T04:47:06;12.98;;;2.28;;
83688;SDS011;74527;43.224;0.108;2024-02-26T04:49:33;14.57;;;2.08;;
83688;SDS011;74527;43.224;0.108;2024-02-26T04:51:59;9.85;;;1.75;;
83688;SDS011;74527;43.224;0.108;2024-02-26T04:54:25;10.68;;;1.40;;
83688;SDS011;74527;43.224;0.108;2024-02-26T04:56:51;12.77;;;2.30;;
83688;SDS011;74527;43.224;0.108;2024-02-26T04:59:17;7.40;;;1.60;;
83688;SDS011;74527;43.224;0.108;2024-02-26T05:01:43;7.25;;;1.80;;
83688;SDS011;74527;43.224;0.108;2024-02-26T05:04:09;15.23;;;1.55;;
83688;SDS011;74527;43.224;0.108;2024-02-26T05:06:36;11.85;;;1.65;;
83688;SDS011;74527;43.224;0.108;2024-02-26T05:09:03;6.32;;;1.33;;
83688;SDS011;74527;43.224;0.108;2024-02-26T05:11:29;11.48;;;1.20;;
83688;SDS011;74527;43.224;0.108;2024-02-26T05:13:55;6.05;;;1.55;;
83688;SDS011;74527;43.224;0.108;2024-02-26T05:16:21;5.70;;;1.95;;
83688;SDS011;74527;43.224;0.108;2024-02-26T05:18:49;8.82;;;1.50;;
83688;SDS011;74527;43.224;0.108;2024-02-26T05:21:15;8.65;;;1.25;;
83688;SDS011;74527;43.224;0.108;2024-02-26T05:23:41;8.15;;;1.30;;
83688;SDS011;74527;43.224;0.108;2024-02-26T05:26:08;6.18;;;1.58;;
83688;SDS011;74527;43.224;0.108;2024-02-26T05:28:34;5.70;;;0.95;;
83688;SDS011;74527;43.224;0.108;2024-02-26T05:31:02;7.72;;;1.73;;
83688;SDS011;74527;43.224;0.108;2024-02-26T05:33:28;9.43;;;1.42;;
83688;SDS011;74527;43.224;0.108;2024-02-26T05:35:54;6.32;;;1.00;;
83688;SDS011;74527;43.224;0.108;2024-02-26T05:38:20;7.15;;;0.98;;
83688;SDS011;74527;43.224;0.108;2024-02-26T05:40:46;4.72;;;1.17;;
83688;SDS011;74527;43.224;0.108;2024-02-26T05:43:12;4.05;;;1.17;;
83688;SDS011;74527;43.224;0.108;2024-02-26T05:45:40;11.68;;;1.35;;
83688;SDS011;74527;43.224;0.108;2024-02-26T05:48:06;3.13;;;0.85;;
83688;SDS011;74527;43.224;0.108;2024-02-26T05:50:32;7.53;;;0.95;;
83688;SDS011;74527;43.224;0.108;2024-02-26T05:52:58;11.88;;;1.13;;
83688;SDS011;74527;43.224;0.108;2024-02-26T05:55:25;3.38;;;1.13;;
83688;SDS011;74527;43.224;0.108;2024-02-26T05:57:51;4.10;;;0.80;;
83688;SDS011;74527;43.224;0.108;2024-02-26T06:00:17;6.43;;;0.90;;
83688;SDS011;74527;43.224;0.108;2024-02-26T06:02:43;3.50;;;0.88;;
83688;SDS011;74527;43.224;0.108;2024-02-26T06:05:09;5.97;;;1.40;;
83688;SDS011;74527;43.224;0.108;2024-02-26T06:07:35;9.75;;;1.17;;
83688;SDS011;74527;43.224;0.108;2024-02-26T06:10:02;3.55;;;0.90;;
83688;SDS011;74527;43.224;0.108;2024-02-26T06:12:29;3.10;;;0.80;;
83688;SDS011;74527;43.224;0.108;2024-02-26T06:14:56;4.30;;;0.77;;
83688;SDS011;74527;43.224;0.108;2024-02-26T06:17:23;8.95;;;1.63;;
83688;SDS011;74527;43.224;0.108;2024-02-26T06:19:49;5.07;;;1.13;;
83688;SDS011;74527;43.224;0.108;2024-02-26T06:22:15;6.97;;;1.33;;
83688;SDS011;74527;43.224;0.108;2024-02-26T06:24:41;4.20;;;0.77;;
83688;SDS011;74527;43.224;0.108;2024-02-26T06:27:07;8.80;;;0.82;;
83688;SDS011;74527;43.224;0.108;2024-02-26T06:29:33;6.22;;;0.98;;
83688;SDS011;74527;43.224;0.108;2024-02-26T06:31:59;3.38;;;0.68;;
83688;SDS011;74527;43.224;0.108;2024-02-26T06:34:25;4.70;;;1.45;;
83688;SDS011;74527;43.224;0.108;2024-02-26T06:36:51;8.23;;;1.55;;
83688;SDS011;74527;43.224;0.108;2024-02-26T06:39:17;9.93;;;2.55;;
83688;SDS011;74527;43.224;0.108;2024-02-26T06:41:44;6.68;;;1.52;;
83688;SDS011;74527;43.224;0.108;2024-02-26T06:44:11;2.50;;;1.20;;
83688;SDS011;74527;43.224;0.108;2024-02-26T06:46:37;1.20;;;0.82;;
83688;SDS011;74527;43.224;0.108;2024-02-26T06:49:04;8.00;;;1.00;;
83688;SDS011;74527;43.224;0.108;2024-02-26T06:51:30;9.85;;;1.77;;
83688;SDS011;74527;43.224;0.108;2024-02-26T06:53:56;3.78;;;0.82;;
83688;SDS011;74527;43.224;0.108;2024-02-26T06:56:22;5.95;;;1.08;;
83688;SDS011;74527;43.224;0.108;2024-02-26T06:58:48;6.68;;;1.20;;
83688;SDS011;74527;43.224;0.108;2024-02-26T07:01:15;4.32;;;1.10;;
83688;SDS011;74527;43.224;0.108;2024-02-26T07:03:41;4.10;;;1.23;;
83688;SDS011;74527;43.224;0.108;2024-02-26T07:06:07;3.40;;;0.90;;
83688;SDS011;74527;43.224;0.108;2024-02-26T07:08:34;6.32;;;1.17;;
83688;SDS011;74527;43.224;0.108;2024-02-26T07:11:00;4.82;;;0.90;;
83688;SDS011;74527;43.224;0.108;2024-02-26T07:13:26;6.50;;;1.00;;
83688;SDS011;74527;43.224;0.108;2024-02-26T07:15:52;5.85;;;1.38;;
83688;SDS011;74527;43.224;0.108;2024-02-26T07:18:18;2.58;;;0.90;;
83688;SDS011;74527;43.224;0.108;2024-02-26T07:20:44;6.57;;;1.05;;
83688;SDS011;74527;43.224;0.108;2024-02-26T07:23:10;4.53;;;0.85;;
83688;SDS011;74527;43.224;0.108;2024-02-26T07:25:37;4.38;;;0.80;;
83688;SDS011;74527;43.224;0.108;2024-02-26T07:28:03;4.25;;;0.90;;
83688;SDS011;74527;43.224;0.108;2024-02-26T07:30:30;4.82;;;1.40;;
83688;SDS011;74527;43.224;0.108;2024-02-26T07:32:56;4.63;;;1.50;;
83688;SDS011;74527;43.224;0.108;2024-02-26T07:35:22;2.35;;;0.60;;
83688;SDS011;74527;43.224;0.108;2024-02-26T07:37:48;2.92;;;0.80;;
83688;SDS011;74527;43.224;0.108;2024-02-26T07:40:15;2.92;;;1.63;;
83688;SDS011;74527;43.224;0.108;2024-02-26T07:42:41;4.63;;;3.35;;
83688;SDS011;74527;43.224;0.108;2024-02-26T07:45:07;8.18;;;2.15;;
83688;SDS011;74527;43.224;0.108;2024-02-26T07:47:33;6.30;;;2.15;;
83688;SDS011;74527;43.224;0.108;2024-02-26T07:50:00;2.90;;;0.95;;
83688;SDS011;74527;43.224;0.108;2024-02-26T07:52:27;1.20;;;0.90;;
83688;SDS011;74527;43.224;0.108;2024-02-26T07:54:53;1.58;;;0.90;;
83688;SDS011;74527;43.224;0.108;2024-02-26T07:57:19;3.08;;;0.82;;
83688;SDS011;74527;43.224;0.108;2024-02-26T07:59:46;2.75;;;1.08;;
83688;SDS011;74527;43.224;0.108;2024-02-26T08:02:14;3.10;;;0.82;;
83688;SDS011;74527;43.224;0.108;2024-02-26T08:04:40;2.65;;;0.70;;
83688;SDS011;74527;43.224;0.108;2024-02-26T08:07:06;2.92;;;1.10;;
83688;SDS011;74527;43.224;0.108;2024-02-26T08:09:32;4.55;;;0.60;;
83688;SDS011;74527;43.224;0.108;2024-02-26T08:11:58;1.98;;;0.88;;
83688;SDS011;74527;43.224;0.108;2024-02-26T08:14:24;2.78;;;0.82;;
83688;SDS011;74527;43.224;0.108;2024-02-26T08:16:51;1.38;;;1.25;;
83688;SDS011;74527;43.224;0.108;2024-02-26T08:19:17;2.35;;;0.82;;
83688;SDS011;74527;43.224;0.108;2024-02-26T08:21:43;4.03;;;0.63;;
83688;SDS011;74527;43.224;0.108;2024-02-26T08:24:09;2.60;;;0.95;;
83688;SDS011;74527;43.224;0.108;2024-02-26T08:26:35;2.28;;;0.60;;
83688;SDS011;74527;43.224;0.108;2024-02-26T08:29:01;2.67;;;0.68;;
83688;SDS011;74527;43.224;0.108;2024-02-26T08:31:27;2.95;;;0.80;;
83688;SDS011;74527;43.224;0.108;2024-02-26T08:33:54;1.45;;;0.80;;
83688;SDS011;74527;43.224;0.108;2024-02-26T08:36:20;3.85;;;0.90;;
83688;SDS011;74527;43.224;0.108;2024-02-26T08:38:46;4.60;;;0.75;;
83688;SDS011;74527;43.224;0.108;2024-02-26T08:41:12;2.38;;;0.70;;
83688;SDS011;74527;43.224;0.108;2024-02-26T08:43:38;1.90;;;0.80;;
83688;SDS011;74527;43.224;0.108;2024-02-26T08:46:07;4.88;;;1.02;;
83688;SDS011;74527;43.224;0.108;2024-02-26T08:48:35;1.52;;;0.68;;
83688;SDS011;74527;43.224;0.108;2024-02-26T08:51:04;1.02;;;0.70;;
83688;SDS011;74527;43.224;0.108;2024-02-26T08:53:30;3.45;;;0.82;;
83688;SDS011;74527;43.224;0.108;2024-02-26T08:55:56;2.22;;;1.15;;
83688;SDS011;74527;43.224;0.108;2024-02-26T08:58:22;2.40;;;0.93;;
83688;SDS011;74527;43.224;0.108;2024-02-26T09:00:48;3.60;;;0.60;;
83688;SDS011;74527;43.224;0.108;2024-02-26T09:03:15;2.38;;;0.75;;
83688;SDS011;74527;43.224;0.108;2024-02-26T09:05:41;3.95;;;1.00;;
83688;SDS011;74527;43.224;0.108;2024-02-26T09:08:07;3.83;;;0.60;;
83688;SDS011;74527;43.224;0.108;2024-02-26T09:10:33;3.95;;;0.85;;
83688;SDS011;74527;43.224;0.108;2024-02-26T09:12:59;3.10;;;1.52;;
83688;SDS011;74527;43.224;0.108;2024-02-26T09:15:25;8.35;;;1.20;;
83688;SDS011;74527;43.224;0.108;2024-02-26T09:17:51;4.50;;;0.65;;
83688;SDS011;74527;43.224;0.108;2024-02-26T09:20:17;2.05;;;0.98;;
83688;SDS011;74527;43.224;0.108;2024-02-26T09:22:47;4.88;;;1.38;;
83688;SDS011;74527;43.224;0.108;2024-02-26T09:25:13;4.20;;;1.17;;
83688;SDS011;74527;43.224;0.108;2024-02-26T09:27:41;3.20;;;1.40;;
83688;SDS011;74527;43.224;0.108;2024-02-26T09:30:08;6.23;;;1.20;;
83688;SDS011;74527;43.224;0.108;2024-02-26T09:32:34;6.43;;;1.58;;
83688;SDS011;74527;43.224;0.108;2024-02-26T09:35:01;3.95;;;1.10;;
83688;SDS011;74527;43.224;0.108;2024-02-26T09:37:27;4.45;;;1.60;;
83688;SDS011;74527;43.224;0.108;2024-02-26T09:39:53;6.05;;;1.92;;
83688;SDS011;74527;43.224;0.108;2024-02-26T09:42:19;5.50;;;0.85;;
83688;SDS011;74527;43.224;0.108;2024-02-26T09:44:45;5.22;;;1.30;;
83688;SDS011;74527;43.224;0.108;2024-02-26T09:47:12;3.33;;;0.90;;
83688;SDS011;74527;43.224;0.108;2024-02-26T09:49:42;3.65;;;0.63;;
83688;SDS011;74527;43.224;0.108;2024-02-26T09:52:08;5.32;;;1.10;;
83688;SDS011;74527;43.224;0.108;2024-02-26T09:54:35;4.55;;;1.25;;
83688;SDS011;74527;43.224;0.108;2024-02-26T09:57:02;2.65;;;1.23;;
83688;SDS011;74527;43.224;0.108;2024-02-26T09:59:40;9.18;;;1.40;;
83688;SDS011;74527;43.224;0.108;2024-02-26T10:02:13;4.50;;;0.65;;
83688;SDS011;74527;43.224;0.108;2024-02-26T10:04:40;3.05;;;0.90;;
83688;SDS011;74527;43.224;0.108;2024-02-26T10:07:10;1.52;;;0.75;;
83688;SDS011;74527;43.224;0.108;2024-02-26T10:09:37;1.95;;;0.57;;
83688;SDS011;74527;43.224;0.108;2024-02-26T10:12:07;1.13;;;0.40;;
83688;SDS011;74527;43.224;0.108;2024-02-26T10:14:34;1.25;;;0.60;;
83688;SDS011;74527;43.224;0.108;2024-02-26T10:17:01;2.10;;;0.57;;
83688;SDS011;74527;43.224;0.108;2024-02-26T10:19:28;2.25;;;0.70;;
83688;SDS011;74527;43.224;0.108;2024-02-26T10:21:57;3.25;;;0.82;;
83688;SDS011;74527;43.224;0.108;2024-02-26T10:24:24;2.33;;;0.50;;
83688;SDS011;74527;43.224;0.108;2024-02-26T10:26:51;2.53;;;1.58;;
83688;SDS011;74527;43.224;0.108;2024-02-26T10:29:18;2.17;;;0.60;;
83688;SDS011;74527;43.224;0.108;2024-02-26T10:31:44;3.08;;;0.40;;
83688;SDS011;74527;43.224;0.108;2024-02-26T10:34:10;2.75;;;0.63;;
83688;SDS011;74527;43.224;0.108;2024-02-26T10:36:36;3.83;;;0.90;;
83688;SDS011;74527;43.224;0.108;2024-02-26T10:39:06;1.38;;;0.52;;
83688;SDS011;74527;43.224;0.108;2024-02-26T10:41:35;2.80;;;0.60;;
83688;SDS011;74527;43.224;0.108;2024-02-26T10:44:01;1.90;;;0.55;;
83688;SDS011;74527;43.224;0.108;2024-02-26T10:46:27;0.85;;;0.50;;
83688;SDS011;74527;43.224;0.108;2024-02-26T10:48:53;3.00;;;1.00;;
83688;SDS011;74527;43.224;0.108;2024-02-26T10:51:20;0.50;;;0.50;;
83688;SDS011;74527;43.224;0.108;2024-02-26T10:53:47;2.05;;;0.38;;
83688;SDS011;74527;43.224;0.108;2024-02-26T10:56:14;2.42;;;0.68;;
83688;SDS011;74527;43.224;0.108;2024-02-26T10:58:41;0.60;;;0.20;;
83688;SDS011;74527;43.224;0.108;2024-02-26T11:01:09;1.97;;;0.30;;
83688;SDS011;74527;43.224;0.108;2024-02-26T11:03:35;0.77;;;0.50;;
83688;SDS011;74527;43.224;0.108;2024-02-26T11:06:02;1.25;;;0.40;;
83688;SDS011;74527;43.224;0.108;2024-02-26T11:08:29;0.50;;;0.50;;
83688;SDS011;74527;43.224;0.108;2024-02-26T11:10:56;0.52;;;0.28;;
83688;SDS011;74527;43.224;0.108;2024-02-26T11:13:23;3.13;;;0.35;;
83688;SDS011;74527;43.224;0.108;2024-02-26T11:18:17;1.15;;;0.25;;
83688;SDS011;74527;43.224;0.108;2024-02-26T11:20:46;1.73;;;0.77;;
83688;SDS011;74527;43.224;0.108;2024-02-26T11:23:13;1.13;;;0.38;;
83688;SDS011;74527;43.224;0.108;2024-02-26T11:25:40;0.30;;;0.30;;
83688;SDS011;74527;43.224;0.108;2024-02-26T11:28:08;0.52;;;0.35;;
83688;SDS011;74527;43.224;0.108;2024-02-26T11:30:37;0.20;;;0.20;;
83688;SDS011;74527;43.224;0.108;2024-02-26T11:33:06;0.45;;;0.30;;
83688;SDS011;74527;43.224;0.108;2024-02-26T11:35:32;0.38;;;0.38;;
83688;SDS011;74527;43.224;0.108;2024-02-26T11:37:59;1.48;;;0.68;;
83688;SDS011;74527;43.224;0.108;2024-02-26T11:40:26;3.47;;;0.40;;
83688;SDS011;74527;43.224;0.108;2024-02-26T11:42:52;2.65;;;0.47;;
83688;SDS011;74527;43.224;0.108;2024-02-26T11:45:47;1.30;;;0.50;;
83688;SDS011;74527;43.224;0.108;2024-02-26T11:48:15;1.70;;;0.55;;
83688;SDS011;74527;43.224;0.108;2024-02-26T11:50:43;1.33;;;0.43;;
83688;SDS011;74527;43.224;0.108;2024-02-26T11:55:47;0.75;;;0.45;;
83688;SDS011;74527;43.224;0.108;2024-02-26T11:58:14;1.60;;;0.60;;
83688;SDS011;74527;43.224;0.108;2024-02-26T12:00:40;1.92;;;0.25;;
83688;SDS011;74527;43.224;0.108;2024-02-26T12:03:06;0.68;;;0.40;;
83688;SDS011;74527;43.224;0.108;2024-02-26T12:05:33;0.30;;;0.30;;
83688;SDS011;74527;43.224;0.108;2024-02-26T12:10:32;2.90;;;0.40;;
83688;SDS011;74527;43.224;0.108;2024-02-26T12:13:29;0.88;;;0.40;;
83688;SDS011;74527;43.224;0.108;2024-02-26T12:15:58;1.05;;;0.50;;
83688;SDS011;74527;43.224;0.108;2024-02-26T12:18:24;1.33;;;0.40;;
83688;SDS011;74527;43.224;0.108;2024-02-26T12:21:00;0.50;;;0.50;;
83688;SDS011;74527;43.224;0.108;2024-02-26T12:23:26;2.13;;;0.47;;
83688;SDS011;74527;43.224;0.108;2024-02-26T12:25:53;1.73;;;1.00;;
83688;SDS011;74527;43.224;0.108;2024-02-26T12:28:20;0.20;;;0.20;;
83688;SDS011;74527;43.224;0.108;2024-02-26T12:30:46;0.20;;;0.20;;
83688;SDS011;74527;43.224;0.108;2024-02-26T12:33:12;1.30;;;0.40;;
83688;SDS011;74527;43.224;0.108;2024-02-26T12:35:38;2.75;;;0.65;;
83688;SDS011;74527;43.224;0.108;2024-02-26T12:38:04;3.65;;;0.80;;
83688;SDS011;74527;43.224;0.108;2024-02-26T12:40:31;0.57;;;0.40;;
83688;SDS011;74527;43.224;0.108;2024-02-26T12:42:57;6.13;;;1.77;;
83688;SDS011;74527;43.224;0.108;2024-02-26T12:45:24;0.20;;;0.20;;
83688;SDS011;74527;43.224;0.108;2024-02-26T12:47:51;0.73;;;0.65;;
83688;SDS011;74527;43.224;0.108;2024-02-26T12:50:17;0.60;;;0.60;;
83688;SDS011;74527;43.224;0.108;2024-02-26T12:52:44;2.40;;;0.82;;
83688;SDS011;74527;43.224;0.108;2024-02-26T12:55:20;2.17;;;0.80;;
83688;SDS011;74527;43.224;0.108;2024-02-26T12:57:46;1.92;;;0.38;;
83688;SDS011;74527;43.224;0.108;2024-02-26T13:00:15;0.70;;;0.45;;
83688;SDS011;74527;43.224;0.108;2024-02-26T13:02:42;0.50;;;0.50;;
83688;SDS011;74527;43.224;0.108;2024-02-26T13:05:10;2.42;;;0.77;;
83688;SDS011;74527;43.224;0.108;2024-02-26T13:07:46;1.80;;;0.50;;
83688;SDS011;74527;43.224;0.108;2024-02-26T13:10:12;1.48;;;0.30;;
83688;SDS011;74527;43.224;0.108;2024-02-26T13:12:45;1.70;;;0.40;;
83688;SDS011;74527;43.224;0.108;2024-02-26T13:15:18;1.15;;;0.50;;
83688;SDS011;74527;43.224;0.108;2024-02-26T13:17:44;0.65;;;0.55;;
83688;SDS011;74527;43.224;0.108;2024-02-26T13:20:11;0.75;;;0.30;;
83688;SDS011;74527;43.224;0.108;2024-02-26T13:22:37;0.55;;;0.40;;
83688;SDS011;74527;43.224;0.108;2024-02-26T13:25:04;0.57;;;0.57;;
83688;SDS011;74527;43.224;0.108;2024-02-26T13:27:32;1.73;;;0.80;;
83688;SDS011;74527;43.224;0.108;2024-02-26T13:30:17;1.38;;;0.52;;
83688;SDS011;74527;43.224;0.108;2024-02-26T13:32:44;1.17;;;0.50;;
83688;SDS011;74527;43.224;0.108;2024-02-26T13:35:12;1.48;;;0.28;;
83688;SDS011;74527;43.224;0.108;2024-02-26T13:37:39;2.53;;;0.30;;
83688;SDS011;74527;43.224;0.108;2024-02-26T13:40:06;4.35;;;0.55;;
83688;SDS011;74527;43.224;0.108;2024-02-26T13:42:33;1.40;;;0.45;;
83688;SDS011;74527;43.224;0.108;2024-02-26T13:44:59;1.98;;;1.02;;
83688;SDS011;74527;43.224;0.108;2024-02-26T13:47:26;3.67;;;0.52;;
83688;SDS011;74527;43.224;0.108;2024-02-26T13:49:52;1.52;;;0.68;;
83688;SDS011;74527;43.224;0.108;2024-02-26T13:52:18;2.70;;;0.52;;
83688;SDS011;74527;43.224;0.108;2024-02-26T13:54:45;1.20;;;0.40;;
83688;SDS011;74527;43.224;0.108;2024-02-26T13:57:11;0.70;;;0.38;;
83688;SDS011;74527;43.224;0.108;2024-02-26T13:59:37;3.10;;;0.35;;
83688;SDS011;74527;43.224;0.108;2024-02-26T14:02:07;1.88;;;0.68;;
83688;SDS011;74527;43.224;0.108;2024-02-26T14:04:33;0.93;;;0.40;;
83688;SDS011;74527;43.224;0.108;2024-02-26T14:06:59;1.65;;;0.38;;
83688;SDS011;74527;43.224;0.108;2024-02-26T14:09:25;1.02;;;0.60;;
83688;SDS011;74527;43.224;0.108;2024-02-26T14:11:51;1.63;;;0.70;;
83688;SDS011;74527;43.224;0.108;2024-02-26T14:14:17;1.65;;;0.45;;
83688;SDS011;74527;43.224;0.108;2024-02-26T14:16:43;1.80;;;1.05;;
83688;SDS011;74527;43.224;0.108;2024-02-26T14:19:09;3.08;;;0.80;;
83688;SDS011;74527;43.224;0.108;2024-02-26T14:21:36;4.85;;;0.60;;
83688;SDS011;74527;43.224;0.108;2024-02-26T14:24:03;1.08;;;0.50;;
83688;SDS011;74527;43.224;0.108;2024-02-26T14:26:29;1.15;;;0.50;;
83688;SDS011;74527;43.224;0.108;2024-02-26T14:28:55;2.05;;;0.60;;
83688;SDS011;74527;43.224;0.108;2024-02-26T14:31:22;3.58;;;0.65;;
83688;SDS011;74527;43.224;0.108;2024-02-26T14:33:48;0.90;;;0.50;;
83688;SDS011;74527;43.224;0.108;2024-02-26T14:36:17;0.30;;;0.30;;
83688;SDS011;74527;43.224;0.108;2024-02-26T14:38:44;3.10;;;0.57;;
83688;SDS011;74527;43.224;0.108;2024-02-26T14:41:10;2.00;;;0.47;;
83688;SDS011;74527;43.224;0.108;2024-02-26T14:43:36;1.92;;;1.05;;
83688;SDS011;74527;43.224;0.108;2024-02-26T14:46:02;4.25;;;0.70;;
83688;SDS011;74527;43.224;0.108;2024-02-26T14:48:28;0.93;;;0.30;;
83688;SDS011;74527;43.224;0.108;2024-02-26T14:50:54;0.55;;;0.35;;
83688;SDS011;74527;43.224;0.108;2024-02-26T14:53:20;0.63;;;0.45;;
83688;SDS011;74527;43.224;0.108;2024-02-26T14:55:46;0.22;;;0.22;;